createdAt,value
2023-06-07T00:00:19.107Z,19.0795
2023-06-07T00:01:20.943Z,19.0836
2023-06-07T00:02:36.869Z,19.0828
2023-06-07T00:03:25.670Z,19.0684
2023-06-07T00:04:26.464Z,19.0555
2023-06-07T00:05:28.321Z,19.0697
2023-06-07T00:06:30.136Z,19.0713
2023-06-07T00:07:31.976Z,19.0740
2023-06-07T00:08:33.840Z,19.0723
2023-06-07T00:09:35.654Z,19.0795
2023-06-07T00:10:37.492Z,19.0674
2023-06-07T00:11:39.316Z,19.0678
2023-06-07T00:12:41.150Z,19.0682
2023-06-07T00:13:43.020Z,19.0709
2023-06-07T00:14:44.849Z,19.0674
2023-06-07T00:15:46.718Z,19.0725
2023-06-07T00:16:48.616Z,19.0818
2023-06-07T00:17:50.487Z,19.0744
2023-06-07T00:18:52.209Z,19.0748
2023-06-07T00:19:54.055Z,19.0795
2023-06-07T00:20:55.933Z,19.0750
2023-06-07T00:21:57.726Z,19.0775
2023-06-07T00:22:59.566Z,19.0840
2023-06-07T00:24:01.412Z,19.0771
2023-06-07T00:25:03.278Z,19.0723
2023-06-07T00:26:05.091Z,19.0799
2023-06-07T00:27:06.939Z,19.0775
2023-06-07T00:28:08.779Z,19.0736
2023-06-07T00:29:10.608Z,19.0805
2023-06-07T00:30:12.458Z,19.0824
2023-06-07T00:31:14.330Z,19.0690
2023-06-07T00:32:16.152Z,19.0715
2023-06-07T00:33:17.970Z,19.0649
2023-06-07T00:34:19.801Z,19.0590
2023-06-07T00:35:21.654Z,19.0629
2023-06-07T00:36:23.545Z,19.0660
2023-06-07T00:37:25.371Z,19.0641
2023-06-07T00:38:27.163Z,19.0575
2023-06-07T00:39:29.002Z,19.0563
2023-06-07T00:40:30.855Z,19.0573
2023-06-07T00:41:32.704Z,19.0561
2023-06-07T00:42:34.535Z,19.0602
2023-06-07T00:43:36.358Z,19.0569
2023-06-07T00:44:38.225Z,19.0594
2023-06-07T00:45:40.031Z,19.0596
2023-06-07T00:46:41.929Z,19.0668
2023-06-07T00:47:43.804Z,19.0701
2023-06-07T00:48:45.671Z,19.0695
2023-06-07T00:49:47.407Z,19.0732
2023-06-07T00:50:49.254Z,19.0656
2023-06-07T00:51:51.174Z,19.0485
2023-06-07T00:52:52.904Z,19.0497
2023-06-07T00:53:54.735Z,19.0464
2023-06-07T00:54:56.600Z,19.0512
2023-06-07T00:55:58.432Z,19.0653
2023-06-07T00:57:00.290Z,19.0643
2023-06-07T00:58:02.097Z,19.0629
2023-06-07T00:59:03.935Z,19.0658
2023-06-07T01:00:06.033Z,19.0641
2023-06-07T01:01:07.639Z,19.0643
2023-06-07T01:02:09.555Z,19.0627
2023-06-07T01:03:11.378Z,19.0647
2023-06-07T01:04:13.135Z,19.0557
2023-06-07T01:05:14.979Z,19.0536
2023-06-07T01:06:16.806Z,19.0510
2023-06-07T01:07:18.711Z,19.0413
2023-06-07T01:08:20.476Z,19.0434
2023-06-07T01:09:22.383Z,19.0243
2023-06-07T01:10:24.173Z,19.0197
2023-06-07T01:11:26.017Z,19.0269
2023-06-07T01:12:27.848Z,19.0321
2023-06-07T01:13:29.682Z,19.0370
2023-06-07T01:14:31.532Z,19.0345
2023-06-07T01:15:33.372Z,19.0397
2023-06-07T01:16:35.252Z,19.0403
2023-06-07T01:17:37.060Z,19.0372
2023-06-07T01:18:38.871Z,19.0325
2023-06-07T01:19:40.722Z,19.0358
2023-06-07T01:20:42.570Z,19.0378
2023-06-07T01:21:44.411Z,19.0425
2023-06-07T01:22:46.271Z,19.0446
2023-06-07T01:23:48.098Z,19.0430
2023-06-07T01:24:49.910Z,19.0442
2023-06-07T01:25:51.748Z,19.0434
2023-06-07T01:26:53.613Z,19.0444
2023-06-07T01:27:55.414Z,19.0467
2023-06-07T01:28:57.242Z,19.0425
2023-06-07T01:29:59.074Z,19.0370
2023-06-07T01:31:00.925Z,19.0255
2023-06-07T01:32:02.779Z,19.0339
2023-06-07T01:33:04.752Z,19.0304
2023-06-07T01:34:06.419Z,19.0296
2023-06-07T01:35:08.256Z,19.0337
2023-06-07T01:36:10.118Z,19.0343
2023-06-07T01:37:11.951Z,19.0276
2023-06-07T01:38:13.855Z,19.0179
2023-06-07T01:39:15.649Z,19.0255
2023-06-07T01:40:17.473Z,19.0271
2023-06-07T01:41:19.300Z,19.0337
2023-06-07T01:42:21.135Z,19.0241
2023-06-07T01:43:22.981Z,18.9974
2023-06-07T01:44:24.820Z,18.9846
2023-06-07T01:45:26.644Z,18.9879
2023-06-07T01:46:28.550Z,18.9990
2023-06-07T01:47:30.302Z,19.0017
2023-06-07T01:48:32.170Z,19.0039
2023-06-07T01:49:33.990Z,19.0134
2023-06-07T01:50:35.826Z,19.0058
2023-06-07T01:51:37.681Z,19.0029
2023-06-07T01:52:39.498Z,18.9957
2023-06-07T01:53:41.364Z,18.9820
2023-06-07T01:54:43.161Z,18.9766
2023-06-07T01:55:45.019Z,18.9741
2023-06-07T01:56:46.875Z,18.9719
2023-06-07T01:57:48.694Z,18.9659
2023-06-07T01:58:50.530Z,18.9670
2023-06-07T01:59:52.357Z,18.9815
2023-06-07T02:00:54.190Z,18.9844
2023-06-07T02:01:56.124Z,18.9803
2023-06-07T02:02:57.900Z,18.9859
2023-06-07T02:03:59.762Z,18.9859
2023-06-07T02:05:01.534Z,18.9879
2023-06-07T02:06:10.956Z,18.9937
2023-06-07T02:07:05.206Z,18.9863
2023-06-07T02:08:07.060Z,18.9807
2023-06-07T02:09:08.961Z,18.9920
2023-06-07T02:10:11.109Z,18.9949
2023-06-07T02:11:12.580Z,18.9840
2023-06-07T02:12:14.405Z,18.9733
2023-06-07T02:13:16.249Z,18.9583
2023-06-07T02:14:18.144Z,18.9643
2023-06-07T02:15:19.940Z,18.9663
2023-06-07T02:16:21.777Z,18.9709
2023-06-07T02:17:23.655Z,18.9735
2023-06-07T02:18:25.494Z,18.9774
2023-06-07T02:19:27.304Z,18.9756
2023-06-07T02:20:29.119Z,18.9692
2023-06-07T02:21:30.982Z,18.9614
2023-06-07T02:22:32.803Z,18.9544
2023-06-07T02:23:34.661Z,18.9563
2023-06-07T02:24:36.562Z,18.9583
2023-06-07T02:25:38.330Z,18.9555
2023-06-07T02:26:40.148Z,18.9600
2023-06-07T02:27:41.978Z,18.9542
2023-06-07T02:28:43.819Z,18.9552
2023-06-07T02:29:45.710Z,18.9501
2023-06-07T02:30:47.512Z,18.9304
2023-06-07T02:31:49.438Z,18.9273
2023-06-07T02:32:51.340Z,18.9298
2023-06-07T02:33:53.013Z,18.9000
2023-06-07T02:34:54.908Z,18.8661
2023-06-07T02:35:56.704Z,18.8990
2023-06-07T02:36:58.544Z,18.9002
2023-06-07T02:38:00.366Z,18.9099
2023-06-07T02:39:02.240Z,18.9117
2023-06-07T02:40:04.286Z,18.9156
2023-06-07T02:41:05.883Z,18.9150
2023-06-07T02:42:07.724Z,18.9203
2023-06-07T02:43:09.577Z,18.9281
2023-06-07T02:44:11.497Z,18.9238
2023-06-07T02:45:13.272Z,18.9296
2023-06-07T02:46:15.097Z,18.9304
2023-06-07T02:47:16.925Z,18.9296
2023-06-07T02:48:18.753Z,18.9271
2023-06-07T02:49:20.606Z,18.9281
2023-06-07T02:50:22.461Z,18.9267
2023-06-07T02:51:24.288Z,18.9177
2023-06-07T02:52:26.110Z,18.9035
2023-06-07T02:53:27.941Z,18.8924
2023-06-07T02:54:29.825Z,18.8819
2023-06-07T02:55:31.642Z,18.8912
2023-06-07T02:56:33.520Z,18.8928
2023-06-07T02:57:35.302Z,18.8990
2023-06-07T02:58:37.132Z,18.9008
2023-06-07T02:59:38.973Z,18.8924
2023-06-07T03:00:40.861Z,18.8786
2023-06-07T03:01:42.662Z,18.8669
2023-06-07T03:02:44.524Z,18.8780
2023-06-07T03:03:46.387Z,18.8784
2023-06-07T03:04:48.155Z,18.8799
2023-06-07T03:05:50.042Z,18.8729
2023-06-07T03:06:51.845Z,18.8704
2023-06-07T03:07:53.705Z,18.8630
2023-06-07T03:08:55.542Z,18.8721
2023-06-07T03:09:57.383Z,18.8747
2023-06-07T03:10:59.209Z,18.8721
2023-06-07T03:12:01.106Z,18.8671
2023-06-07T03:13:02.967Z,18.8591
2023-06-07T03:14:04.782Z,18.8640
2023-06-07T03:15:06.643Z,18.8474
2023-06-07T03:16:08.489Z,18.8546
2023-06-07T03:17:10.573Z,18.8447
2023-06-07T03:18:12.191Z,18.8386
2023-06-07T03:19:13.981Z,18.8392
2023-06-07T03:20:15.811Z,18.8308
2023-06-07T03:21:17.705Z,18.8371
2023-06-07T03:22:19.495Z,18.8460
2023-06-07T03:23:21.314Z,18.8423
2023-06-07T03:24:23.172Z,18.8415
2023-06-07T03:25:25.065Z,18.8425
2023-06-07T03:26:26.919Z,18.8433
2023-06-07T03:27:28.696Z,18.8486
2023-06-07T03:28:30.514Z,18.8515
2023-06-07T03:29:32.366Z,18.8400
2023-06-07T03:30:34.247Z,18.8394
2023-06-07T03:31:36.080Z,18.8363
2023-06-07T03:32:37.907Z,18.8437
2023-06-07T03:33:39.727Z,18.8279
2023-06-07T03:34:41.564Z,18.8258
2023-06-07T03:35:43.391Z,18.8326
2023-06-07T03:36:45.268Z,18.8353
2023-06-07T03:37:47.066Z,18.8324
2023-06-07T03:38:48.902Z,18.8336
2023-06-07T03:39:50.757Z,18.8380
2023-06-07T03:40:52.600Z,18.8373
2023-06-07T03:41:54.596Z,18.8429
2023-06-07T03:42:56.279Z,18.8419
2023-06-07T03:43:58.116Z,18.8279
2023-06-07T03:44:59.938Z,18.8172
2023-06-07T03:46:01.815Z,18.8145
2023-06-07T03:47:03.636Z,18.7887
2023-06-07T03:48:05.513Z,18.8030
2023-06-07T03:49:07.334Z,18.8059
2023-06-07T03:50:09.180Z,18.8141
2023-06-07T03:51:10.986Z,18.8102
2023-06-07T03:52:12.847Z,18.8067
2023-06-07T03:53:14.650Z,18.7965
2023-06-07T03:54:16.485Z,18.8032
2023-06-07T03:55:18.339Z,18.7950
2023-06-07T03:56:20.188Z,18.7965
2023-06-07T03:57:22.050Z,18.7926
2023-06-07T03:58:23.846Z,18.8061
2023-06-07T03:59:25.703Z,18.8074
2023-06-07T04:00:27.558Z,18.8067
2023-06-07T04:01:29.379Z,18.8008
2023-06-07T04:02:31.328Z,18.8035
2023-06-07T04:03:33.123Z,18.8082
2023-06-07T04:04:35.015Z,18.8008
2023-06-07T04:05:36.732Z,18.7897
2023-06-07T04:06:38.584Z,18.7989
2023-06-07T04:07:40.429Z,18.7989
2023-06-07T04:08:42.242Z,18.8006
2023-06-07T04:09:44.085Z,18.7977
2023-06-07T04:10:45.935Z,18.7928
2023-06-07T04:11:47.780Z,18.7794
2023-06-07T04:12:49.773Z,18.7821
2023-06-07T04:13:51.461Z,18.7743
2023-06-07T04:14:53.280Z,18.7535
2023-06-07T04:15:55.129Z,18.7453
2023-06-07T04:16:57.123Z,18.7587
2023-06-07T04:17:58.920Z,18.7597
2023-06-07T04:19:02.270Z,18.7675
2023-06-07T04:20:02.472Z,18.7593
2023-06-07T04:21:04.354Z,18.7652
2023-06-07T04:22:06.176Z,18.7650
2023-06-07T04:23:08.021Z,18.7739
2023-06-07T04:24:09.936Z,18.7671
2023-06-07T04:25:11.699Z,18.7638
2023-06-07T04:26:13.534Z,18.7720
2023-06-07T04:27:15.377Z,18.7402
2023-06-07T04:28:17.262Z,18.7427
2023-06-07T04:29:19.053Z,18.7385
2023-06-07T04:30:20.882Z,18.7435
2023-06-07T04:31:22.736Z,18.7381
2023-06-07T04:32:24.624Z,18.7535
2023-06-07T04:33:26.400Z,18.7558
2023-06-07T04:34:28.233Z,18.7558
2023-06-07T04:35:30.072Z,18.7268
2023-06-07T04:36:31.928Z,18.7248
2023-06-07T04:37:33.757Z,18.7229
2023-06-07T04:38:46.300Z,18.7059
2023-06-07T04:39:39.182Z,18.7125
2023-06-07T04:40:39.741Z,18.7219
2023-06-07T04:41:41.323Z,18.7340
2023-06-07T04:42:42.951Z,18.7223
2023-06-07T04:43:44.837Z,18.7246
2023-06-07T04:44:46.614Z,18.7272
2023-06-07T04:45:48.452Z,18.7309
2023-06-07T04:46:50.290Z,18.7281
2023-06-07T04:47:52.188Z,18.7316
2023-06-07T04:48:54.002Z,18.7377
2023-06-07T04:49:55.800Z,18.7439
2023-06-07T04:50:57.635Z,18.7402
2023-06-07T04:51:59.472Z,18.7266
2023-06-07T04:53:01.320Z,18.7416
2023-06-07T04:54:03.220Z,18.7365
2023-06-07T04:55:04.975Z,18.7402
2023-06-07T04:56:06.827Z,18.7383
2023-06-07T04:57:08.663Z,18.7363
2023-06-07T04:58:10.514Z,18.7307
2023-06-07T04:59:12.348Z,18.7318
2023-06-07T05:00:14.189Z,18.7429
2023-06-07T05:01:16.008Z,18.7297
2023-06-07T05:02:17.835Z,18.7238
2023-06-07T05:03:19.683Z,18.7338
2023-06-07T05:04:21.625Z,18.7353
2023-06-07T05:05:23.440Z,18.7260
2023-06-07T05:06:25.253Z,18.7219
2023-06-07T05:07:27.023Z,18.7264
2023-06-07T05:08:28.863Z,18.7353
2023-06-07T05:09:31.064Z,18.7410
2023-06-07T05:10:32.555Z,18.7402
2023-06-07T05:11:34.405Z,18.7394
2023-06-07T05:12:36.224Z,18.7455
2023-06-07T05:13:38.058Z,18.7211
2023-06-07T05:14:39.905Z,18.7332
2023-06-07T05:15:41.765Z,18.7340
2023-06-07T05:16:44.630Z,18.7408
2023-06-07T05:17:45.447Z,18.7338
2023-06-07T05:18:47.260Z,18.7340
2023-06-07T05:19:49.093Z,18.7305
2023-06-07T05:20:50.922Z,18.7379
2023-06-07T05:21:52.763Z,18.7342
2023-06-07T05:22:54.628Z,18.7361
2023-06-07T05:23:56.451Z,18.7272
2023-06-07T05:24:58.275Z,18.7348
2023-06-07T05:26:00.093Z,18.7194
2023-06-07T05:27:01.944Z,18.7047
2023-06-07T05:28:13.187Z,18.7079
2023-06-07T05:29:08.304Z,18.7053
2023-06-07T05:30:08.896Z,18.7110
2023-06-07T05:31:12.048Z,18.7090
2023-06-07T05:32:11.964Z,18.7110
2023-06-07T05:33:13.539Z,18.7098
2023-06-07T05:34:15.110Z,18.7137
2023-06-07T05:35:16.690Z,18.7143
2023-06-07T05:36:18.451Z,18.7139
2023-06-07T05:37:20.287Z,18.6981
2023-06-07T05:38:22.115Z,18.6923
2023-06-07T05:39:23.946Z,18.7003
2023-06-07T05:40:25.813Z,18.6911
2023-06-07T05:41:27.628Z,18.7034
2023-06-07T05:42:29.453Z,18.7067
2023-06-07T05:43:31.295Z,18.7135
2023-06-07T05:44:33.132Z,18.7018
2023-06-07T05:45:35.013Z,18.7188
2023-06-07T05:46:36.830Z,18.7162
2023-06-07T05:47:38.702Z,18.7272
2023-06-07T05:48:40.476Z,18.7318
2023-06-07T05:49:42.334Z,18.7357
2023-06-07T05:50:44.158Z,18.7311
2023-06-07T05:51:45.991Z,18.7246
2023-06-07T05:52:47.832Z,18.7201
2023-06-07T05:53:49.664Z,18.7127
2023-06-07T05:54:51.494Z,18.7190
2023-06-07T05:55:53.349Z,18.7246
2023-06-07T05:56:55.161Z,18.7221
2023-06-07T05:57:57.040Z,18.7145
2023-06-07T05:58:58.857Z,18.7235
2023-06-07T06:00:00.677Z,18.7270
2023-06-07T06:01:02.556Z,18.7301
2023-06-07T06:02:04.380Z,18.7318
2023-06-07T06:03:06.226Z,18.7314
2023-06-07T06:04:08.048Z,18.7381
2023-06-07T06:05:10.048Z,18.7375
2023-06-07T06:06:11.720Z,18.7369
2023-06-07T06:07:13.552Z,18.7338
2023-06-07T06:08:15.407Z,18.7248
2023-06-07T06:09:17.274Z,18.7240
2023-06-07T06:10:19.080Z,18.7279
2023-06-07T06:11:20.935Z,18.7357
2023-06-07T06:12:22.767Z,18.7390
2023-06-07T06:13:24.607Z,18.7357
2023-06-07T06:14:26.510Z,18.7348
2023-06-07T06:15:28.273Z,18.7281
2023-06-07T06:16:30.180Z,18.7233
2023-06-07T06:17:31.993Z,18.7246
2023-06-07T06:18:33.842Z,18.7260
2023-06-07T06:19:35.640Z,18.7145
2023-06-07T06:20:37.477Z,18.6950
2023-06-07T06:21:39.315Z,18.6989
2023-06-07T06:22:41.159Z,18.7186
2023-06-07T06:23:43.025Z,18.7120
2023-06-07T06:24:44.826Z,18.7188
2023-06-07T06:25:46.652Z,18.7248
2023-06-07T06:26:48.499Z,18.7266
2023-06-07T06:27:50.399Z,18.7129
2023-06-07T06:28:52.182Z,18.6977
2023-06-07T06:29:54.009Z,18.6825
2023-06-07T06:30:55.861Z,18.6958
2023-06-07T06:31:57.685Z,18.7131
2023-06-07T06:32:59.561Z,18.7143
2023-06-07T06:34:01.343Z,18.7217
2023-06-07T06:35:03.174Z,18.7221
2023-06-07T06:36:05.004Z,18.7293
2023-06-07T06:37:06.928Z,18.7090
2023-06-07T06:38:08.840Z,18.6999
2023-06-07T06:39:10.504Z,18.7005
2023-06-07T06:40:12.341Z,18.7231
2023-06-07T06:41:14.190Z,18.7307
2023-06-07T06:42:16.035Z,18.7281
2023-06-07T06:43:17.868Z,18.7264
2023-06-07T06:44:19.687Z,18.7256
2023-06-07T06:45:21.528Z,18.7406
2023-06-07T06:46:23.459Z,18.7507
2023-06-07T06:47:25.266Z,18.7394
2023-06-07T06:48:27.019Z,18.7437
2023-06-07T06:49:28.866Z,18.7494
2023-06-07T06:50:33.347Z,18.7548
2023-06-07T06:51:32.541Z,18.7611
2023-06-07T06:52:34.386Z,18.7652
2023-06-07T06:53:36.233Z,18.7689
2023-06-07T06:54:38.065Z,18.7731
2023-06-07T06:55:39.878Z,18.7665
2023-06-07T06:56:41.734Z,18.7671
2023-06-07T06:57:43.562Z,18.7652
2023-06-07T06:58:45.404Z,18.7603
2023-06-07T06:59:50.067Z,18.7675
2023-06-07T07:00:49.215Z,18.7757
2023-06-07T07:01:50.932Z,18.7829
2023-06-07T07:02:52.976Z,18.7831
2023-06-07T07:03:54.612Z,18.7733
2023-06-07T07:04:56.402Z,18.7782
2023-06-07T07:05:58.253Z,18.7800
2023-06-07T07:07:00.080Z,18.7852
2023-06-07T07:08:01.931Z,18.7755
2023-06-07T07:09:03.743Z,18.7860
2023-06-07T07:10:05.741Z,18.7807
2023-06-07T07:11:07.418Z,18.7790
2023-06-07T07:12:09.259Z,18.7837
2023-06-07T07:13:11.118Z,18.8039
2023-06-07T07:14:12.913Z,18.8035
2023-06-07T07:15:14.786Z,18.8055
2023-06-07T07:16:16.762Z,18.8043
2023-06-07T07:17:18.500Z,18.8086
2023-06-07T07:18:20.346Z,18.8010
2023-06-07T07:19:22.174Z,18.8104
2023-06-07T07:20:24.008Z,18.8106
2023-06-07T07:21:25.863Z,18.8189
2023-06-07T07:22:29.109Z,18.8248
2023-06-07T07:23:29.568Z,18.8308
2023-06-07T07:24:31.361Z,18.8234
2023-06-07T07:25:33.202Z,18.8279
2023-06-07T07:26:35.051Z,18.8343
2023-06-07T07:27:36.907Z,18.8365
2023-06-07T07:28:38.760Z,18.8437
2023-06-07T07:29:40.553Z,18.8476
2023-06-07T07:30:42.393Z,18.8550
2023-06-07T07:31:44.225Z,18.8493
2023-06-07T07:32:46.145Z,18.8618
2023-06-07T07:33:48.182Z,18.8536
2023-06-07T07:34:49.810Z,18.8532
2023-06-07T07:35:51.584Z,18.8638
2023-06-07T07:36:53.409Z,18.8671
2023-06-07T07:37:55.258Z,18.8546
2023-06-07T07:38:57.118Z,18.8663
2023-06-07T07:39:58.941Z,18.8729
2023-06-07T07:41:00.772Z,18.8817
2023-06-07T07:42:03.579Z,18.8727
2023-06-07T07:43:04.474Z,18.8675
2023-06-07T07:44:06.320Z,18.8661
2023-06-07T07:45:08.140Z,18.8760
2023-06-07T07:46:10.014Z,18.8834
2023-06-07T07:47:11.812Z,18.8905
2023-06-07T07:48:13.696Z,18.9018
2023-06-07T07:49:15.567Z,18.9012
2023-06-07T07:50:17.331Z,18.9101
2023-06-07T07:51:19.149Z,18.9146
2023-06-07T07:52:22.649Z,18.9109
2023-06-07T07:53:22.842Z,18.9201
2023-06-07T07:54:24.697Z,18.9242
2023-06-07T07:55:26.518Z,18.9246
2023-06-07T07:56:28.357Z,18.9292
2023-06-07T07:57:30.181Z,18.9320
2023-06-07T07:58:32.040Z,18.9298
2023-06-07T07:59:34.112Z,18.9259
2023-06-07T08:00:35.715Z,18.9177
2023-06-07T08:01:37.572Z,18.9240
2023-06-07T08:02:39.506Z,18.9273
2023-06-07T08:03:41.347Z,18.9242
2023-06-07T08:04:43.227Z,18.9248
2023-06-07T08:05:44.915Z,18.9388
2023-06-07T08:06:46.751Z,18.9392
2023-06-07T08:07:48.585Z,18.9292
2023-06-07T08:08:50.407Z,18.9327
2023-06-07T08:09:52.266Z,18.9283
2023-06-07T08:10:54.105Z,18.9310
2023-06-07T08:11:55.929Z,18.9355
2023-06-07T08:12:57.763Z,18.9454
2023-06-07T08:13:59.604Z,18.9489
2023-06-07T08:15:01.459Z,18.9563
2023-06-07T08:16:03.320Z,18.9567
2023-06-07T08:17:05.119Z,18.9587
2023-06-07T08:18:06.956Z,18.9575
2023-06-07T08:19:08.827Z,18.9647
2023-06-07T08:20:10.647Z,18.9682
2023-06-07T08:21:12.453Z,18.9649
2023-06-07T08:22:14.302Z,18.9791
2023-06-07T08:23:16.142Z,18.9729
2023-06-07T08:24:17.963Z,18.9719
2023-06-07T08:25:19.835Z,18.9700
2023-06-07T08:26:21.635Z,18.9815
2023-06-07T08:27:23.467Z,18.9947
2023-06-07T08:28:25.290Z,18.9932
2023-06-07T08:29:27.125Z,19.0021
2023-06-07T08:30:29.002Z,19.0031
2023-06-07T08:31:30.841Z,19.0062
2023-06-07T08:32:32.749Z,19.0124
2023-06-07T08:33:34.478Z,19.0156
2023-06-07T08:34:36.318Z,19.0257
2023-06-07T08:35:38.153Z,19.0200
2023-06-07T08:36:39.990Z,19.0241
2023-06-07T08:37:41.809Z,19.0282
2023-06-07T08:38:43.661Z,19.0323
2023-06-07T08:39:45.485Z,19.0304
2023-06-07T08:40:47.339Z,19.0380
2023-06-07T08:41:49.157Z,19.0430
2023-06-07T08:42:51.009Z,19.0440
2023-06-07T08:43:52.807Z,19.0506
2023-06-07T08:44:54.653Z,19.0508
2023-06-07T08:45:56.618Z,19.0625
2023-06-07T08:46:58.307Z,19.0641
2023-06-07T08:48:00.240Z,19.0662
2023-06-07T08:49:01.984Z,19.0647
2023-06-07T08:50:04.259Z,19.0719
2023-06-07T08:51:05.671Z,19.0697
2023-06-07T08:53:10.309Z,19.0814
2023-06-07T08:54:11.158Z,19.0785
2023-06-07T08:55:13.197Z,19.0771
2023-06-07T08:56:17.889Z,19.0824
2023-06-07T08:57:16.677Z,19.0910
2023-06-07T08:58:18.492Z,19.0931
2023-06-07T08:59:20.316Z,19.0923
2023-06-07T09:00:22.152Z,19.0933
2023-06-07T09:01:24.100Z,19.1029
2023-06-07T09:02:25.978Z,19.1042
2023-06-07T09:03:27.762Z,19.1097
2023-06-07T09:04:29.541Z,19.1077
2023-06-07T09:05:31.644Z,19.1128
2023-06-07T09:06:33.262Z,19.1171
2023-06-07T09:07:35.040Z,19.1237
2023-06-07T09:08:36.870Z,19.1208
2023-06-07T09:09:38.697Z,19.1239
2023-06-07T09:10:40.541Z,19.1261
2023-06-07T09:11:42.404Z,19.1358
2023-06-07T09:12:44.243Z,19.1409
2023-06-07T09:13:46.077Z,19.1422
2023-06-07T09:14:47.893Z,19.1455
2023-06-07T09:15:49.724Z,19.1424
2023-06-07T09:16:51.772Z,19.1518
2023-06-07T09:17:53.688Z,19.1498
2023-06-07T09:18:55.359Z,19.1543
2023-06-07T09:19:57.088Z,19.1625
2023-06-07T09:20:58.937Z,19.1619
2023-06-07T09:22:00.949Z,19.1658
2023-06-07T09:23:02.612Z,19.1650
2023-06-07T09:24:04.461Z,19.1693
2023-06-07T09:25:06.608Z,19.1742
2023-06-07T09:26:08.120Z,19.1777
2023-06-07T09:27:09.977Z,19.1808
2023-06-07T09:28:11.789Z,19.1882
2023-06-07T09:29:13.623Z,19.1861
2023-06-07T09:30:15.470Z,19.1913
2023-06-07T09:31:17.337Z,19.1968
2023-06-07T09:32:19.187Z,19.2019
2023-06-07T09:33:21.041Z,19.1993
2023-06-07T09:34:22.799Z,19.2009
2023-06-07T09:35:24.649Z,19.2075
2023-06-07T09:36:26.522Z,19.2110
2023-06-07T09:37:28.462Z,19.2147
2023-06-07T09:38:30.155Z,19.2147
2023-06-07T09:39:32.006Z,19.2217
2023-06-07T09:40:33.829Z,19.2254
2023-06-07T09:41:35.654Z,19.2210
2023-06-07T09:42:37.508Z,19.2245
2023-06-07T09:43:39.348Z,19.2307
2023-06-07T09:44:41.173Z,19.2358
2023-06-07T09:45:43.039Z,19.2346
2023-06-07T09:46:44.860Z,19.2328
2023-06-07T09:47:46.694Z,19.2395
2023-06-07T09:48:48.777Z,19.2490
2023-06-07T09:49:50.389Z,19.2395
2023-06-07T09:50:52.203Z,19.2467
2023-06-07T09:51:54.102Z,19.2490
2023-06-07T09:52:55.920Z,19.2545
2023-06-07T09:53:57.752Z,19.2486
2023-06-07T09:54:59.545Z,19.2584
2023-06-07T09:56:01.466Z,19.2568
2023-06-07T09:57:03.221Z,19.2590
2023-06-07T09:58:05.048Z,19.2664
2023-06-07T09:59:06.902Z,19.2615
2023-06-07T10:00:09.128Z,19.2636
2023-06-07T10:01:10.581Z,19.2730
2023-06-07T10:02:12.395Z,19.2679
2023-06-07T10:03:14.368Z,19.2825
2023-06-07T10:04:16.115Z,19.2755
2023-06-07T10:05:17.897Z,19.2761
2023-06-07T10:06:19.733Z,19.2839
2023-06-07T10:07:21.572Z,19.2927
2023-06-07T10:08:23.455Z,19.2831
2023-06-07T10:09:25.268Z,19.3061
2023-06-07T10:10:27.104Z,19.3110
2023-06-07T10:11:28.896Z,19.3116
2023-06-07T10:12:30.758Z,19.3135
2023-06-07T10:13:32.644Z,19.3129
2023-06-07T10:14:34.563Z,19.3192
2023-06-07T10:15:36.254Z,19.3225
2023-06-07T10:16:38.139Z,19.3291
2023-06-07T10:17:39.949Z,19.3338
2023-06-07T10:18:41.783Z,19.3387
2023-06-07T10:19:43.612Z,19.3507
2023-06-07T10:20:45.510Z,19.3523
2023-06-07T10:21:47.330Z,19.3544
2023-06-07T10:22:49.143Z,19.3500
2023-06-07T10:23:51.096Z,19.3589
2023-06-07T10:24:52.867Z,19.3609
2023-06-07T10:25:54.623Z,19.3624
2023-06-07T10:26:56.477Z,19.3710
2023-06-07T10:27:58.302Z,19.3798
2023-06-07T10:29:00.159Z,19.3845
2023-06-07T10:30:02.012Z,19.3854
2023-06-07T10:31:03.816Z,19.3870
2023-06-07T10:32:05.703Z,19.3864
2023-06-07T10:33:07.540Z,19.3903
2023-06-07T10:34:09.390Z,19.3991
2023-06-07T10:35:13.614Z,19.4030
2023-06-07T10:36:13.061Z,19.4162
2023-06-07T10:37:14.908Z,19.4244
2023-06-07T10:38:16.698Z,19.4349
2023-06-07T10:39:18.566Z,19.4419
2023-06-07T10:40:20.406Z,19.4435
2023-06-07T10:41:22.223Z,19.4439
2023-06-07T10:42:24.047Z,19.4460
2023-06-07T10:43:25.879Z,19.4564
2023-06-07T10:44:27.798Z,19.4575
2023-06-07T10:45:29.570Z,19.4710
2023-06-07T10:46:31.425Z,19.4729
2023-06-07T10:47:33.287Z,19.4696
2023-06-07T10:48:35.134Z,19.4788
2023-06-07T10:49:36.973Z,19.4737
2023-06-07T10:50:38.801Z,19.4712
2023-06-07T10:51:40.666Z,19.4745
2023-06-07T10:52:42.461Z,19.4854
2023-06-07T10:53:44.347Z,19.4951
2023-06-07T10:54:46.143Z,19.5088
2023-06-07T10:55:47.986Z,19.5164
2023-06-07T10:56:49.819Z,19.5201
2023-06-07T10:57:51.664Z,19.5308
2023-06-07T10:58:53.488Z,19.5318
2023-06-07T10:59:55.334Z,19.5392
2023-06-07T11:00:57.226Z,19.5483
2023-06-07T11:01:59.076Z,19.5548
2023-06-07T11:03:00.949Z,19.5630
2023-06-07T11:04:02.960Z,19.5522
2023-06-07T11:05:04.893Z,19.5606
2023-06-07T11:06:06.796Z,19.5598
2023-06-07T11:07:08.195Z,19.5743
2023-06-07T11:08:10.039Z,19.5842
2023-06-07T11:09:11.870Z,19.5848
2023-06-07T11:10:13.844Z,19.5891
2023-06-07T11:11:15.575Z,19.5941
2023-06-07T11:12:17.419Z,19.6043
2023-06-07T11:13:19.253Z,19.6000
2023-06-07T11:14:21.087Z,19.6023
2023-06-07T11:15:23.091Z,19.6045
2023-06-07T11:16:24.823Z,19.6002
2023-06-07T11:17:26.660Z,19.6171
2023-06-07T11:18:28.579Z,19.6130
2023-06-07T11:19:30.424Z,19.6169
2023-06-07T11:20:32.205Z,19.6226
2023-06-07T11:21:34.031Z,19.6259
2023-06-07T11:22:35.900Z,19.6378
2023-06-07T11:23:37.771Z,19.6321
2023-06-07T11:24:39.631Z,19.6393
2023-06-07T11:25:41.548Z,19.6423
2023-06-07T11:26:43.238Z,19.6399
2023-06-07T11:27:45.083Z,19.6327
2023-06-07T11:28:46.991Z,19.6384
2023-06-07T11:29:48.741Z,19.6501
2023-06-07T11:30:50.597Z,19.6450
2023-06-07T11:31:52.465Z,19.6532
2023-06-07T11:32:54.301Z,19.6528
2023-06-07T11:33:56.123Z,19.6506
2023-06-07T11:34:58.013Z,19.6565
2023-06-07T11:35:59.786Z,19.6518
2023-06-07T11:37:01.625Z,19.6627
2023-06-07T11:38:03.469Z,19.6668
2023-06-07T11:39:05.311Z,19.6680
2023-06-07T11:40:07.410Z,19.6777
2023-06-07T11:41:08.996Z,19.6781
2023-06-07T11:42:10.849Z,19.6818
2023-06-07T11:43:12.671Z,19.6826
2023-06-07T11:44:14.504Z,19.6879
2023-06-07T11:45:16.350Z,19.6886
2023-06-07T11:46:18.180Z,19.6998
2023-06-07T11:47:20.062Z,19.6986
2023-06-07T11:48:21.945Z,19.7095
2023-06-07T11:49:23.701Z,19.7124
2023-06-07T11:50:25.521Z,19.7229
2023-06-07T11:51:27.590Z,19.7144
2023-06-07T11:52:29.196Z,19.7161
2023-06-07T11:53:31.041Z,19.7165
2023-06-07T11:54:32.889Z,19.7216
2023-06-07T11:55:34.720Z,19.7272
2023-06-07T11:56:36.592Z,19.7372
2023-06-07T11:57:38.427Z,19.7424
2023-06-07T11:58:40.248Z,19.7432
2023-06-07T11:59:42.204Z,19.7465
2023-06-07T12:00:43.949Z,19.7418
2023-06-07T12:01:45.777Z,19.7496
2023-06-07T12:02:47.628Z,19.7483
2023-06-07T12:03:49.534Z,19.7434
2023-06-07T12:04:51.318Z,19.7459
2023-06-07T12:05:53.093Z,19.7576
2023-06-07T12:06:54.946Z,19.7606
2023-06-07T12:07:57.686Z,19.7676
2023-06-07T12:08:58.624Z,19.7806
2023-06-07T12:10:00.453Z,19.7851
2023-06-07T12:11:02.307Z,19.7861
2023-06-07T12:12:04.235Z,19.7925
2023-06-07T12:13:05.975Z,19.7991
2023-06-07T12:14:07.803Z,19.7978
2023-06-07T12:15:09.637Z,19.7956
2023-06-07T12:16:11.515Z,19.8040
2023-06-07T12:17:13.358Z,19.8017
2023-06-07T12:18:15.169Z,19.8097
2023-06-07T12:19:16.994Z,19.8311
2023-06-07T12:20:18.830Z,19.8451
2023-06-07T12:21:20.691Z,19.8597
2023-06-07T12:22:22.594Z,19.8786
2023-06-07T12:23:24.419Z,19.8954
2023-06-07T12:24:26.189Z,19.9085
2023-06-07T12:25:28.058Z,19.9102
2023-06-07T12:26:32.207Z,19.9124
2023-06-07T12:27:31.726Z,19.9155
2023-06-07T12:28:33.553Z,19.9229